sensor_id;sensor_type;location;lat;lon;timestamp;P1;durP1;ratioP1;P2;durP2;ratioP2
64282;SDS011;50497;50.720;-2.084;2022-08-26T00:01:52;7.43;;;1.95;;
64282;SDS011;50497;50.720;-2.084;2022-08-26T00:04:18;8.32;;;2.10;;
64282;SDS011;50497;50.720;-2.084;2022-08-26T00:06:44;8.43;;;2.05;;
64282;SDS011;50497;50.720;-2.084;2022-08-26T00:09:13;7.68;;;2.15;;
64282;SDS011;50497;50.720;-2.084;2022-08-26T00:11:39;6.93;;;1.95;;
64282;SDS011;50497;50.720;-2.084;2022-08-26T00:14:05;8.40;;;1.92;;
64282;SDS011;50497;50.720;-2.084;2022-08-26T00:16:30;7.07;;;1.80;;
64282;SDS011;50497;50.720;-2.084;2022-08-26T00:18:56;8.13;;;2.00;;
64282;SDS011;50497;50.720;-2.084;2022-08-26T00:21:22;10.10;;;1.95;;
64282;SDS011;50497;50.720;-2.084;2022-08-26T00:23:47;10.10;;;2.22;;
64282;SDS011;50497;50.720;-2.084;2022-08-26T00:26:13;10.35;;;2.00;;
64282;SDS011;50497;50.720;-2.084;2022-08-26T00:28:39;9.82;;;2.00;;
64282;SDS011;50497;50.720;-2.084;2022-08-26T00:31:05;9.00;;;1.90;;
64282;SDS011;50497;50.720;-2.084;2022-08-26T00:33:31;8.45;;;2.00;;
64282;SDS011;50497;50.720;-2.084;2022-08-26T00:35:56;11.27;;;1.92;;
64282;SDS011;50497;50.720;-2.084;2022-08-26T00:38:22;8.85;;;1.85;;
64282;SDS011;50497;50.720;-2.084;2022-08-26T00:40:49;8.13;;;2.05;;
64282;SDS011;50497;50.720;-2.084;2022-08-26T00:43:17;6.95;;;2.00;;
64282;SDS011;50497;50.720;-2.084;2022-08-26T00:45:44;9.02;;;2.00;;
64282;SDS011;50497;50.720;-2.084;2022-08-26T00:48:14;7.45;;;2.00;;
64282;SDS011;50497;50.720;-2.084;2022-08-26T00:50:45;10.13;;;2.22;;
64282;SDS011;50497;50.720;-2.084;2022-08-26T00:53:14;8.45;;;2.00;;
64282;SDS011;50497;50.720;-2.084;2022-08-26T00:58:15;7.72;;;2.00;;
64282;SDS011;50497;50.720;-2.084;2022-08-26T01:00:41;8.77;;;2.15;;
64282;SDS011;50497;50.720;-2.084;2022-08-26T01:03:07;8.70;;;1.92;;
64282;SDS011;50497;50.720;-2.084;2022-08-26T01:05:34;8.43;;;2.28;;
64282;SDS011;50497;50.720;-2.084;2022-08-26T01:08:03;6.80;;;2.10;;
64282;SDS011;50497;50.720;-2.084;2022-08-26T01:10:29;6.35;;;1.98;;
64282;SDS011;50497;50.720;-2.084;2022-08-26T01:12:57;7.18;;;1.98;;
64282;SDS011;50497;50.720;-2.084;2022-08-26T01:15:31;9.02;;;2.20;;
64282;SDS011;50497;50.720;-2.084;2022-08-26T01:18:02;8.15;;;1.88;;
64282;SDS011;50497;50.720;-2.084;2022-08-26T01:23:13;9.35;;;2.10;;
64282;SDS011;50497;50.720;-2.084;2022-08-26T01:25:45;7.05;;;2.08;;
64282;SDS011;50497;50.720;-2.084;2022-08-26T01:28:21;8.23;;;2.10;;
64282;SDS011;50497;50.720;-2.084;2022-08-26T01:30:49;5.63;;;1.88;;
64282;SDS011;50497;50.720;-2.084;2022-08-26T01:33:18;8.23;;;2.10;;
64282;SDS011;50497;50.720;-2.084;2022-08-26T01:35:48;7.45;;;2.20;;
64282;SDS011;50497;50.720;-2.084;2022-08-26T01:38:18;9.73;;;2.20;;
64282;SDS011;50497;50.720;-2.084;2022-08-26T01:40:44;7.70;;;2.10;;
64282;SDS011;50497;50.720;-2.084;2022-08-26T01:43:22;7.82;;;2.10;;
64282;SDS011;50497;50.720;-2.084;2022-08-26T01:45:53;8.82;;;2.33;;
64282;SDS011;50497;50.720;-2.084;2022-08-26T01:48:22;8.52;;;2.10;;
64282;SDS011;50497;50.720;-2.084;2022-08-26T01:50:55;9.52;;;1.92;;
64282;SDS011;50497;50.720;-2.084;2022-08-26T01:53:24;8.40;;;1.95;;
64282;SDS011;50497;50.720;-2.084;2022-08-26T01:55:53;7.85;;;2.28;;
64282;SDS011;50497;50.720;-2.084;2022-08-26T01:58:33;8.30;;;2.10;;
64282;SDS011;50497;50.720;-2.084;2022-08-26T02:01:07;8.45;;;2.13;;
64282;SDS011;50497;50.720;-2.084;2022-08-26T02:03:33;8.75;;;2.03;;
64282;SDS011;50497;50.720;-2.084;2022-08-26T02:06:02;8.02;;;2.25;;
64282;SDS011;50497;50.720;-2.084;2022-08-26T02:11:00;7.68;;;2.10;;
64282;SDS011;50497;50.720;-2.084;2022-08-26T02:13:26;7.07;;;2.20;;
64282;SDS011;50497;50.720;-2.084;2022-08-26T02:15:54;7.97;;;2.08;;
64282;SDS011;50497;50.720;-2.084;2022-08-26T02:18:20;6.63;;;2.10;;
64282;SDS011;50497;50.720;-2.084;2022-08-26T02:23:22;7.20;;;2.17;;
64282;SDS011;50497;50.720;-2.084;2022-08-26T02:25:59;8.73;;;2.40;;
64282;SDS011;50497;50.720;-2.084;2022-08-26T02:28:44;10.65;;;2.58;;
64282;SDS011;50497;50.720;-2.084;2022-08-26T02:31:22;6.80;;;2.10;;
64282;SDS011;50497;50.720;-2.084;2022-08-26T02:33:51;10.80;;;2.33;;
64282;SDS011;50497;50.720;-2.084;2022-08-26T02:36:21;7.38;;;2.10;;
64282;SDS011;50497;50.720;-2.084;2022-08-26T02:38:50;8.68;;;2.13;;
64282;SDS011;50497;50.720;-2.084;2022-08-26T02:41:16;7.55;;;2.28;;
64282;SDS011;50497;50.720;-2.084;2022-08-26T02:43:41;8.32;;;2.25;;
64282;SDS011;50497;50.720;-2.084;2022-08-26T02:46:08;8.85;;;2.38;;
64282;SDS011;50497;50.720;-2.084;2022-08-26T02:48:33;8.55;;;2.22;;
64282;SDS011;50497;50.720;-2.084;2022-08-26T02:51:03;7.30;;;2.25;;
64282;SDS011;50497;50.720;-2.084;2022-08-26T02:53:28;5.85;;;2.08;;
64282;SDS011;50497;50.720;-2.084;2022-08-26T02:55:54;8.35;;;2.60;;
64282;SDS011;50497;50.720;-2.084;2022-08-26T02:58:20;6.90;;;2.25;;
64282;SDS011;50497;50.720;-2.084;2022-08-26T03:00:45;7.40;;;2.20;;
64282;SDS011;50497;50.720;-2.084;2022-08-26T03:03:12;7.20;;;2.25;;
64282;SDS011;50497;50.720;-2.084;2022-08-26T03:05:38;8.45;;;2.05;;
64282;SDS011;50497;50.720;-2.084;2022-08-26T03:08:08;7.20;;;2.33;;
64282;SDS011;50497;50.720;-2.084;2022-08-26T03:10:36;8.73;;;2.63;;
64282;SDS011;50497;50.720;-2.084;2022-08-26T03:13:02;5.97;;;2.13;;
64282;SDS011;50497;50.720;-2.084;2022-08-26T03:15:28;8.90;;;2.50;;
64282;SDS011;50497;50.720;-2.084;2022-08-26T03:17:57;8.27;;;2.30;;
64282;SDS011;50497;50.720;-2.084;2022-08-26T03:20:23;9.50;;;2.40;;
64282;SDS011;50497;50.720;-2.084;2022-08-26T03:22:52;7.25;;;2.65;;
64282;SDS011;50497;50.720;-2.084;2022-08-26T03:25:19;8.65;;;2.53;;
64282;SDS011;50497;50.720;-2.084;2022-08-26T03:27:46;9.55;;;2.35;;
64282;SDS011;50497;50.720;-2.084;2022-08-26T03:30:17;9.50;;;2.50;;
64282;SDS011;50497;50.720;-2.084;2022-08-26T03:33:02;9.65;;;2.22;;
64282;SDS011;50497;50.720;-2.084;2022-08-26T03:35:28;6.18;;;2.30;;
64282;SDS011;50497;50.720;-2.084;2022-08-26T03:37:54;9.65;;;2.42;;
64282;SDS011;50497;50.720;-2.084;2022-08-26T03:40:20;8.80;;;2.15;;
64282;SDS011;50497;50.720;-2.084;2022-08-26T03:42:46;7.30;;;2.38;;
64282;SDS011;50497;50.720;-2.084;2022-08-26T03:45:12;7.55;;;2.20;;
64282;SDS011;50497;50.720;-2.084;2022-08-26T03:47:40;8.27;;;2.30;;
64282;SDS011;50497;50.720;-2.084;2022-08-26T03:50:07;7.07;;;2.22;;
64282;SDS011;50497;50.720;-2.084;2022-08-26T03:52:34;7.90;;;2.40;;
64282;SDS011;50497;50.720;-2.084;2022-08-26T03:57:26;6.10;;;2.20;;
64282;SDS011;50497;50.720;-2.084;2022-08-26T03:59:52;7.07;;;2.20;;
64282;SDS011;50497;50.720;-2.084;2022-08-26T04:02:18;10.05;;;2.30;;
64282;SDS011;50497;50.720;-2.084;2022-08-26T04:04:43;7.47;;;2.60;;
64282;SDS011;50497;50.720;-2.084;2022-08-26T04:07:09;8.40;;;2.47;;
64282;SDS011;50497;50.720;-2.084;2022-08-26T04:09:34;8.68;;;2.55;;
64282;SDS011;50497;50.720;-2.084;2022-08-26T04:12:00;7.60;;;2.42;;
64282;SDS011;50497;50.720;-2.084;2022-08-26T04:14:32;7.78;;;2.40;;
64282;SDS011;50497;50.720;-2.084;2022-08-26T04:17:02;7.10;;;2.42;;
64282;SDS011;50497;50.720;-2.084;2022-08-26T04:19:29;10.85;;;2.60;;
64282;SDS011;50497;50.720;-2.084;2022-08-26T04:21:56;7.35;;;2.50;;
64282;SDS011;50497;50.720;-2.084;2022-08-26T04:24:23;7.90;;;2.30;;
64282;SDS011;50497;50.720;-2.084;2022-08-26T04:26:50;6.57;;;1.98;;
64282;SDS011;50497;50.720;-2.084;2022-08-26T04:29:20;7.00;;;2.20;;
64282;SDS011;50497;50.720;-2.084;2022-08-26T04:31:48;7.53;;;2.10;;
64282;SDS011;50497;50.720;-2.084;2022-08-26T04:34:20;7.95;;;2.20;;
64282;SDS011;50497;50.720;-2.084;2022-08-26T04:36:47;10.05;;;2.55;;
64282;SDS011;50497;50.720;-2.084;2022-08-26T04:39:17;8.60;;;2.20;;
64282;SDS011;50497;50.720;-2.084;2022-08-26T04:41:47;7.88;;;2.28;;
64282;SDS011;50497;50.720;-2.084;2022-08-26T04:44:13;9.82;;;2.72;;
64282;SDS011;50497;50.720;-2.084;2022-08-26T04:46:39;6.32;;;2.10;;
64282;SDS011;50497;50.720;-2.084;2022-08-26T04:49:05;7.22;;;2.22;;
64282;SDS011;50497;50.720;-2.084;2022-08-26T04:51:33;6.28;;;2.00;;
64282;SDS011;50497;50.720;-2.084;2022-08-26T04:53:59;6.82;;;2.17;;
64282;SDS011;50497;50.720;-2.084;2022-08-26T04:56:29;8.18;;;2.30;;
64282;SDS011;50497;50.720;-2.084;2022-08-26T04:58:59;5.78;;;2.00;;
64282;SDS011;50497;50.720;-2.084;2022-08-26T05:01:27;5.20;;;2.05;;
64282;SDS011;50497;50.720;-2.084;2022-08-26T05:03:53;7.00;;;2.38;;
64282;SDS011;50497;50.720;-2.084;2022-08-26T05:06:19;6.03;;;2.30;;
64282;SDS011;50497;50.720;-2.084;2022-08-26T05:08:45;5.82;;;1.90;;
64282;SDS011;50497;50.720;-2.084;2022-08-26T05:11:16;5.65;;;2.10;;
64282;SDS011;50497;50.720;-2.084;2022-08-26T05:13:46;6.18;;;2.05;;
64282;SDS011;50497;50.720;-2.084;2022-08-26T05:16:13;5.75;;;2.30;;
64282;SDS011;50497;50.720;-2.084;2022-08-26T05:18:40;9.05;;;2.80;;
64282;SDS011;50497;50.720;-2.084;2022-08-26T05:21:07;7.13;;;2.42;;
64282;SDS011;50497;50.720;-2.084;2022-08-26T05:23:42;7.43;;;2.55;;
64282;SDS011;50497;50.720;-2.084;2022-08-26T05:26:12;8.45;;;3.33;;
64282;SDS011;50497;50.720;-2.084;2022-08-26T05:28:37;10.13;;;3.97;;
64282;SDS011;50497;50.720;-2.084;2022-08-26T05:33:35;6.65;;;2.35;;
64282;SDS011;50497;50.720;-2.084;2022-08-26T05:36:04;6.78;;;2.38;;
64282;SDS011;50497;50.720;-2.084;2022-08-26T05:38:32;8.98;;;2.83;;
64282;SDS011;50497;50.720;-2.084;2022-08-26T05:41:00;9.38;;;2.38;;
64282;SDS011;50497;50.720;-2.084;2022-08-26T05:43:29;8.25;;;2.55;;
64282;SDS011;50497;50.720;-2.084;2022-08-26T05:46:04;8.73;;;2.70;;
64282;SDS011;50497;50.720;-2.084;2022-08-26T05:48:31;6.97;;;2.83;;
64282;SDS011;50497;50.720;-2.084;2022-08-26T05:50:56;9.75;;;2.58;;
64282;SDS011;50497;50.720;-2.084;2022-08-26T05:53:27;11.10;;;3.35;;
64282;SDS011;50497;50.720;-2.084;2022-08-26T05:55:57;6.15;;;2.10;;
64282;SDS011;50497;50.720;-2.084;2022-08-26T05:58:24;4.70;;;1.90;;
64282;SDS011;50497;50.720;-2.084;2022-08-26T06:03:24;6.80;;;2.28;;
64282;SDS011;50497;50.720;-2.084;2022-08-26T06:05:49;7.53;;;2.17;;
64282;SDS011;50497;50.720;-2.084;2022-08-26T06:08:16;5.88;;;2.03;;
64282;SDS011;50497;50.720;-2.084;2022-08-26T06:10:45;8.23;;;2.50;;
64282;SDS011;50497;50.720;-2.084;2022-08-26T06:13:16;6.82;;;2.42;;
64282;SDS011;50497;50.720;-2.084;2022-08-26T06:15:48;9.65;;;2.38;;
64282;SDS011;50497;50.720;-2.084;2022-08-26T06:18:15;7.65;;;2.30;;
64282;SDS011;50497;50.720;-2.084;2022-08-26T06:20:47;8.18;;;3.70;;
64282;SDS011;50497;50.720;-2.084;2022-08-26T06:23:18;5.95;;;2.42;;
64282;SDS011;50497;50.720;-2.084;2022-08-26T06:26:03;9.55;;;2.70;;
64282;SDS011;50497;50.720;-2.084;2022-08-26T06:28:29;6.47;;;2.38;;
64282;SDS011;50497;50.720;-2.084;2022-08-26T06:30:55;6.75;;;2.17;;
64282;SDS011;50497;50.720;-2.084;2022-08-26T06:33:21;5.93;;;2.17;;
64282;SDS011;50497;50.720;-2.084;2022-08-26T06:35:48;6.65;;;2.20;;
64282;SDS011;50497;50.720;-2.084;2022-08-26T06:40:49;6.00;;;2.20;;
64282;SDS011;50497;50.720;-2.084;2022-08-26T06:43:21;6.97;;;2.00;;
64282;SDS011;50497;50.720;-2.084;2022-08-26T06:46:02;6.57;;;2.00;;
64282;SDS011;50497;50.720;-2.084;2022-08-26T06:48:33;8.48;;;2.20;;
64282;SDS011;50497;50.720;-2.084;2022-08-26T06:51:04;5.63;;;2.10;;
64282;SDS011;50497;50.720;-2.084;2022-08-26T06:53:37;11.52;;;2.80;;
64282;SDS011;50497;50.720;-2.084;2022-08-26T06:56:05;5.68;;;2.22;;
64282;SDS011;50497;50.720;-2.084;2022-08-26T06:58:36;7.78;;;2.30;;
64282;SDS011;50497;50.720;-2.084;2022-08-26T07:01:03;7.43;;;2.30;;
64282;SDS011;50497;50.720;-2.084;2022-08-26T07:03:38;8.90;;;2.33;;
64282;SDS011;50497;50.720;-2.084;2022-08-26T07:06:03;6.93;;;2.30;;
64282;SDS011;50497;50.720;-2.084;2022-08-26T07:08:29;8.52;;;2.33;;
64282;SDS011;50497;50.720;-2.084;2022-08-26T07:10:55;7.85;;;2.38;;
64282;SDS011;50497;50.720;-2.084;2022-08-26T07:13:27;7.13;;;2.55;;
64282;SDS011;50497;50.720;-2.084;2022-08-26T07:15:53;8.40;;;2.65;;
64282;SDS011;50497;50.720;-2.084;2022-08-26T07:18:21;8.30;;;2.55;;
64282;SDS011;50497;50.720;-2.084;2022-08-26T07:20:47;9.93;;;2.53;;
64282;SDS011;50497;50.720;-2.084;2022-08-26T07:23:13;7.75;;;2.40;;
64282;SDS011;50497;50.720;-2.084;2022-08-26T07:25:39;8.10;;;2.17;;
64282;SDS011;50497;50.720;-2.084;2022-08-26T07:28:05;7.60;;;2.30;;
64282;SDS011;50497;50.720;-2.084;2022-08-26T07:30:39;5.18;;;2.10;;
64282;SDS011;50497;50.720;-2.084;2022-08-26T07:33:10;7.53;;;2.30;;
64282;SDS011;50497;50.720;-2.084;2022-08-26T07:35:35;6.75;;;2.40;;
64282;SDS011;50497;50.720;-2.084;2022-08-26T07:38:06;6.57;;;2.20;;
64282;SDS011;50497;50.720;-2.084;2022-08-26T07:40:37;8.98;;;2.45;;
64282;SDS011;50497;50.720;-2.084;2022-08-26T07:43:07;7.30;;;2.40;;
64282;SDS011;50497;50.720;-2.084;2022-08-26T07:45:33;9.98;;;2.08;;
64282;SDS011;50497;50.720;-2.084;2022-08-26T07:48:03;7.00;;;2.00;;
64282;SDS011;50497;50.720;-2.084;2022-08-26T07:50:29;5.97;;;1.80;;
64282;SDS011;50497;50.720;-2.084;2022-08-26T07:52:57;6.82;;;1.70;;
64282;SDS011;50497;50.720;-2.084;2022-08-26T07:55:28;6.55;;;1.65;;
64282;SDS011;50497;50.720;-2.084;2022-08-26T07:57:58;6.15;;;1.80;;
64282;SDS011;50497;50.720;-2.084;2022-08-26T08:00:24;6.55;;;1.63;;
64282;SDS011;50497;50.720;-2.084;2022-08-26T08:02:50;6.90;;;1.92;;
64282;SDS011;50497;50.720;-2.084;2022-08-26T08:05:18;5.75;;;1.80;;
64282;SDS011;50497;50.720;-2.084;2022-08-26T08:07:45;4.82;;;1.70;;
64282;SDS011;50497;50.720;-2.084;2022-08-26T08:12:39;6.40;;;1.80;;
64282;SDS011;50497;50.720;-2.084;2022-08-26T08:15:06;5.63;;;1.60;;
64282;SDS011;50497;50.720;-2.084;2022-08-26T08:17:35;7.38;;;1.60;;
64282;SDS011;50497;50.720;-2.084;2022-08-26T08:20:05;5.65;;;1.60;;
64282;SDS011;50497;50.720;-2.084;2022-08-26T08:22:32;6.85;;;1.70;;
64282;SDS011;50497;50.720;-2.084;2022-08-26T08:24:59;5.53;;;1.63;;
64282;SDS011;50497;50.720;-2.084;2022-08-26T08:27:25;6.63;;;1.80;;
64282;SDS011;50497;50.720;-2.084;2022-08-26T08:29:51;4.90;;;1.60;;
64282;SDS011;50497;50.720;-2.084;2022-08-26T08:32:22;5.82;;;1.70;;
64282;SDS011;50497;50.720;-2.084;2022-08-26T08:34:47;7.60;;;1.65;;
64282;SDS011;50497;50.720;-2.084;2022-08-26T08:37:14;5.85;;;1.40;;
64282;SDS011;50497;50.720;-2.084;2022-08-26T08:39:39;5.80;;;1.50;;
64282;SDS011;50497;50.720;-2.084;2022-08-26T08:45:36;6.38;;;1.75;;
64282;SDS011;50497;50.720;-2.084;2022-08-26T08:48:12;5.18;;;1.50;;
64282;SDS011;50497;50.720;-2.084;2022-08-26T08:50:45;7.97;;;1.55;;
64282;SDS011;50497;50.720;-2.084;2022-08-26T08:53:14;6.32;;;1.73;;
64282;SDS011;50497;50.720;-2.084;2022-08-26T08:56:03;3.95;;;1.42;;
64282;SDS011;50497;50.720;-2.084;2022-08-26T09:06:54;5.90;;;1.52;;
64282;SDS011;50497;50.720;-2.084;2022-08-26T09:10:16;4.20;;;1.30;;
64282;SDS011;50497;50.720;-2.084;2022-08-26T09:12:20;3.92;;;1.30;;
64282;SDS011;50497;50.720;-2.084;2022-08-26T09:14:51;4.95;;;1.40;;
64282;SDS011;50497;50.720;-2.084;2022-08-26T09:20:33;4.82;;;1.48;;
64282;SDS011;50497;50.720;-2.084;2022-08-26T09:23:03;4.65;;;1.30;;
64282;SDS011;50497;50.720;-2.084;2022-08-26T09:25:28;5.25;;;1.50;;
64282;SDS011;50497;50.720;-2.084;2022-08-26T09:27:54;5.50;;;1.25;;
64282;SDS011;50497;50.720;-2.084;2022-08-26T09:37:56;4.05;;;1.45;;
64282;SDS011;50497;50.720;-2.084;2022-08-26T09:40:27;4.82;;;1.40;;
64282;SDS011;50497;50.720;-2.084;2022-08-26T09:45:47;5.97;;;1.67;;
64282;SDS011;50497;50.720;-2.084;2022-08-26T09:48:31;4.85;;;1.20;;
64282;SDS011;50497;50.720;-2.084;2022-08-26T09:51:04;4.95;;;1.38;;
64282;SDS011;50497;50.720;-2.084;2022-08-26T09:59:01;4.55;;;1.45;;
64282;SDS011;50497;50.720;-2.084;2022-08-26T10:01:32;4.90;;;1.55;;
64282;SDS011;50497;50.720;-2.084;2022-08-26T10:04:17;6.10;;;1.48;;
64282;SDS011;50497;50.720;-2.084;2022-08-26T10:06:59;5.18;;;1.50;;
64282;SDS011;50497;50.720;-2.084;2022-08-26T10:09:28;6.45;;;1.55;;
64282;SDS011;50497;50.720;-2.084;2022-08-26T10:12:05;5.13;;;1.42;;
64282;SDS011;50497;50.720;-2.084;2022-08-26T10:14:42;4.90;;;1.20;;
64282;SDS011;50497;50.720;-2.084;2022-08-26T10:20:10;5.70;;;1.35;;
64282;SDS011;50497;50.720;-2.084;2022-08-26T10:28:36;5.82;;;1.40;;
64282;SDS011;50497;50.720;-2.084;2022-08-26T10:31:21;5.22;;;1.50;;
64282;SDS011;50497;50.720;-2.084;2022-08-26T10:33:55;5.40;;;1.52;;
64282;SDS011;50497;50.720;-2.084;2022-08-26T10:36:25;4.30;;;1.40;;
64282;SDS011;50497;50.720;-2.084;2022-08-26T10:39:22;5.13;;;1.23;;
64282;SDS011;50497;50.720;-2.084;2022-08-26T10:41:57;3.72;;;1.40;;
64282;SDS011;50497;50.720;-2.084;2022-08-26T10:44:28;5.13;;;1.33;;
64282;SDS011;50497;50.720;-2.084;2022-08-26T10:47:08;4.40;;;1.40;;
64282;SDS011;50497;50.720;-2.084;2022-08-26T10:49:39;5.20;;;1.40;;
64282;SDS011;50497;50.720;-2.084;2022-08-26T10:52:16;5.30;;;1.23;;
64282;SDS011;50497;50.720;-2.084;2022-08-26T10:54:53;6.15;;;1.50;;
64282;SDS011;50497;50.720;-2.084;2022-08-26T11:00:17;6.03;;;1.33;;
64282;SDS011;50497;50.720;-2.084;2022-08-26T11:05:36;6.00;;;1.50;;
64282;SDS011;50497;50.720;-2.084;2022-08-26T11:08:28;6.18;;;1.40;;
64282;SDS011;50497;50.720;-2.084;2022-08-26T11:10:55;5.38;;;1.30;;
64282;SDS011;50497;50.720;-2.084;2022-08-26T11:16:31;6.50;;;1.40;;
64282;SDS011;50497;50.720;-2.084;2022-08-26T11:19:00;4.72;;;1.38;;
64282;SDS011;50497;50.720;-2.084;2022-08-26T11:21:40;4.97;;;1.33;;
64282;SDS011;50497;50.720;-2.084;2022-08-26T11:24:07;5.72;;;1.65;;
64282;SDS011;50497;50.720;-2.084;2022-08-26T11:26:34;6.28;;;1.42;;
64282;SDS011;50497;50.720;-2.084;2022-08-26T11:29:00;5.57;;;1.50;;
64282;SDS011;50497;50.720;-2.084;2022-08-26T11:33:57;5.57;;;1.60;;
64282;SDS011;50497;50.720;-2.084;2022-08-26T11:36:41;6.35;;;1.70;;
64282;SDS011;50497;50.720;-2.084;2022-08-26T11:42:20;6.72;;;1.80;;
64282;SDS011;50497;50.720;-2.084;2022-08-26T11:47:46;5.32;;;1.73;;
64282;SDS011;50497;50.720;-2.084;2022-08-26T11:50:23;5.07;;;1.48;;
64282;SDS011;50497;50.720;-2.084;2022-08-26T11:55:29;7.43;;;1.73;;
64282;SDS011;50497;50.720;-2.084;2022-08-26T11:58:01;6.13;;;1.52;;
64282;SDS011;50497;50.720;-2.084;2022-08-26T12:00:29;5.20;;;1.50;;
64282;SDS011;50497;50.720;-2.084;2022-08-26T12:03:18;6.43;;;1.75;;
64282;SDS011;50497;50.720;-2.084;2022-08-26T12:05:51;5.85;;;1.80;;
64282;SDS011;50497;50.720;-2.084;2022-08-26T12:08:19;5.43;;;1.60;;
64282;SDS011;50497;50.720;-2.084;2022-08-26T12:11:00;6.80;;;1.60;;
64282;SDS011;50497;50.720;-2.084;2022-08-26T12:13:35;7.28;;;1.70;;
64282;SDS011;50497;50.720;-2.084;2022-08-26T12:16:03;6.63;;;1.60;;
64282;SDS011;50497;50.720;-2.084;2022-08-26T12:18:32;5.78;;;1.60;;
64282;SDS011;50497;50.720;-2.084;2022-08-26T12:21:03;6.35;;;1.73;;
64282;SDS011;50497;50.720;-2.084;2022-08-26T12:23:41;6.00;;;1.65;;
64282;SDS011;50497;50.720;-2.084;2022-08-26T12:26:19;5.63;;;1.70;;
64282;SDS011;50497;50.720;-2.084;2022-08-26T12:29:01;6.13;;;1.70;;
64282;SDS011;50497;50.720;-2.084;2022-08-26T12:31:39;7.85;;;1.60;;
64282;SDS011;50497;50.720;-2.084;2022-08-26T12:34:11;7.28;;;1.60;;
64282;SDS011;50497;50.720;-2.084;2022-08-26T12:36:46;7.30;;;1.70;;
64282;SDS011;50497;50.720;-2.084;2022-08-26T12:39:52;5.40;;;1.55;;
64282;SDS011;50497;50.720;-2.084;2022-08-26T12:45:07;5.53;;;1.67;;
64282;SDS011;50497;50.720;-2.084;2022-08-26T12:47:38;5.43;;;1.40;;
64282;SDS011;50497;50.720;-2.084;2022-08-26T12:52:37;6.85;;;1.70;;
64282;SDS011;50497;50.720;-2.084;2022-08-26T12:55:17;4.93;;;1.40;;
64282;SDS011;50497;50.720;-2.084;2022-08-26T12:57:47;6.80;;;1.65;;
64282;SDS011;50497;50.720;-2.084;2022-08-26T13:02:58;10.63;;;1.70;;
64282;SDS011;50497;50.720;-2.084;2022-08-26T13:05:29;4.75;;;1.60;;
64282;SDS011;50497;50.720;-2.084;2022-08-26T13:08:07;6.68;;;1.55;;
64282;SDS011;50497;50.720;-2.084;2022-08-26T13:10:59;6.80;;;1.63;;
64282;SDS011;50497;50.720;-2.084;2022-08-26T13:13:27;6.22;;;1.58;;
64282;SDS011;50497;50.720;-2.084;2022-08-26T13:15:54;5.63;;;1.70;;
64282;SDS011;50497;50.720;-2.084;2022-08-26T13:18:20;5.57;;;1.63;;
64282;SDS011;50497;50.720;-2.084;2022-08-26T13:20:45;5.30;;;1.70;;
64282;SDS011;50497;50.720;-2.084;2022-08-26T13:23:11;6.05;;;1.52;;
64282;SDS011;50497;50.720;-2.084;2022-08-26T13:25:37;5.90;;;1.70;;
64282;SDS011;50497;50.720;-2.084;2022-08-26T13:28:02;5.93;;;1.70;;
64282;SDS011;50497;50.720;-2.084;2022-08-26T13:30:28;6.00;;;1.70;;
64282;SDS011;50497;50.720;-2.084;2022-08-26T13:32:54;4.88;;;1.67;;
64282;SDS011;50497;50.720;-2.084;2022-08-26T13:35:23;5.07;;;1.58;;
64282;SDS011;50497;50.720;-2.084;2022-08-26T13:37:50;7.45;;;1.70;;
64282;SDS011;50497;50.720;-2.084;2022-08-26T13:40:16;5.43;;;1.40;;
64282;SDS011;50497;50.720;-2.084;2022-08-26T13:42:41;5.20;;;1.63;;
64282;SDS011;50497;50.720;-2.084;2022-08-26T13:45:07;4.57;;;1.65;;
64282;SDS011;50497;50.720;-2.084;2022-08-26T13:47:34;5.50;;;1.58;;
64282;SDS011;50497;50.720;-2.084;2022-08-26T13:50:00;5.10;;;1.52;;
64282;SDS011;50497;50.720;-2.084;2022-08-26T13:52:26;5.70;;;1.52;;
64282;SDS011;50497;50.720;-2.084;2022-08-26T13:54:51;5.70;;;1.70;;
64282;SDS011;50497;50.720;-2.084;2022-08-26T13:57:17;5.97;;;1.58;;
64282;SDS011;50497;50.720;-2.084;2022-08-26T13:59:42;4.47;;;1.40;;
64282;SDS011;50497;50.720;-2.084;2022-08-26T14:02:08;3.97;;;1.38;;
64282;SDS011;50497;50.720;-2.084;2022-08-26T14:04:33;5.95;;;1.80;;
64282;SDS011;50497;50.720;-2.084;2022-08-26T14:06:59;5.50;;;1.50;;
64282;SDS011;50497;50.720;-2.084;2022-08-26T14:09:25;4.43;;;1.40;;
64282;SDS011;50497;50.720;-2.084;2022-08-26T14:11:50;5.13;;;1.63;;
64282;SDS011;50497;50.720;-2.084;2022-08-26T14:14:16;4.10;;;1.33;;
64282;SDS011;50497;50.720;-2.084;2022-08-26T14:16:41;4.22;;;1.40;;
64282;SDS011;50497;50.720;-2.084;2022-08-26T14:19:07;5.00;;;1.30;;
64282;SDS011;50497;50.720;-2.084;2022-08-26T14:21:34;7.13;;;1.60;;
64282;SDS011;50497;50.720;-2.084;2022-08-26T14:24:03;5.18;;;1.42;;
64282;SDS011;50497;50.720;-2.084;2022-08-26T14:26:30;5.10;;;1.40;;
64282;SDS011;50497;50.720;-2.084;2022-08-26T14:28:56;5.43;;;1.45;;
64282;SDS011;50497;50.720;-2.084;2022-08-26T14:31:22;5.10;;;1.40;;
64282;SDS011;50497;50.720;-2.084;2022-08-26T14:33:48;6.07;;;1.48;;
64282;SDS011;50497;50.720;-2.084;2022-08-26T14:36:14;6.60;;;1.40;;
64282;SDS011;50497;50.720;-2.084;2022-08-26T14:39:08;6.80;;;1.90;;
64282;SDS011;50497;50.720;-2.084;2022-08-26T14:41:41;4.95;;;1.35;;
64282;SDS011;50497;50.720;-2.084;2022-08-26T14:44:12;6.82;;;1.73;;
64282;SDS011;50497;50.720;-2.084;2022-08-26T14:46:44;5.63;;;1.65;;
64282;SDS011;50497;50.720;-2.084;2022-08-26T14:49:12;4.65;;;1.55;;
64282;SDS011;50497;50.720;-2.084;2022-08-26T14:51:38;6.97;;;1.95;;
64282;SDS011;50497;50.720;-2.084;2022-08-26T14:54:05;5.93;;;1.60;;
64282;SDS011;50497;50.720;-2.084;2022-08-26T14:56:37;4.05;;;1.30;;
64282;SDS011;50497;50.720;-2.084;2022-08-26T14:59:14;4.78;;;1.30;;
64282;SDS011;50497;50.720;-2.084;2022-08-26T15:01:42;4.05;;;1.40;;
64282;SDS011;50497;50.720;-2.084;2022-08-26T15:04:07;5.30;;;1.40;;
64282;SDS011;50497;50.720;-2.084;2022-08-26T15:06:33;6.03;;;1.50;;
64282;SDS011;50497;50.720;-2.084;2022-08-26T15:08:59;6.43;;;1.50;;
64282;SDS011;50497;50.720;-2.084;2022-08-26T15:11:25;5.03;;;1.30;;
64282;SDS011;50497;50.720;-2.084;2022-08-26T15:13:51;5.85;;;1.50;;
64282;SDS011;50497;50.720;-2.084;2022-08-26T15:16:21;5.10;;;1.35;;
64282;SDS011;50497;50.720;-2.084;2022-08-26T15:18:51;7.40;;;1.55;;
64282;SDS011;50497;50.720;-2.084;2022-08-26T15:21:17;5.40;;;1.90;;
64282;SDS011;50497;50.720;-2.084;2022-08-26T15:23:44;5.72;;;1.60;;
64282;SDS011;50497;50.720;-2.084;2022-08-26T15:26:11;3.53;;;1.33;;
64282;SDS011;50497;50.720;-2.084;2022-08-26T15:28:37;6.57;;;1.70;;
64282;SDS011;50497;50.720;-2.084;2022-08-26T15:31:07;5.78;;;1.40;;
64282;SDS011;50497;50.720;-2.084;2022-08-26T15:33:33;5.57;;;1.70;;
64282;SDS011;50497;50.720;-2.084;2022-08-26T15:36:00;4.05;;;1.50;;
64282;SDS011;50497;50.720;-2.084;2022-08-26T15:38:28;4.47;;;1.58;;
64282;SDS011;50497;50.720;-2.084;2022-08-26T15:40:55;5.43;;;1.65;;
64282;SDS011;50497;50.720;-2.084;2022-08-26T15:43:20;4.32;;;1.60;;
64282;SDS011;50497;50.720;-2.084;2022-08-26T15:45:47;5.57;;;1.65;;
64282;SDS011;50497;50.720;-2.084;2022-08-26T15:48:12;5.57;;;1.70;;
64282;SDS011;50497;50.720;-2.084;2022-08-26T15:50:41;11.73;;;2.00;;
64282;SDS011;50497;50.720;-2.084;2022-08-26T15:53:15;7.78;;;1.70;;
64282;SDS011;50497;50.720;-2.084;2022-08-26T15:55:41;4.70;;;1.80;;
64282;SDS011;50497;50.720;-2.084;2022-08-26T15:58:07;5.30;;;2.00;;
64282;SDS011;50497;50.720;-2.084;2022-08-26T16:00:37;7.45;;;2.13;;
64282;SDS011;50497;50.720;-2.084;2022-08-26T16:03:03;4.93;;;1.60;;
64282;SDS011;50497;50.720;-2.084;2022-08-26T16:05:31;9.15;;;2.00;;
64282;SDS011;50497;50.720;-2.084;2022-08-26T16:08:03;4.45;;;1.35;;
64282;SDS011;50497;50.720;-2.084;2022-08-26T16:10:30;4.60;;;1.75;;
64282;SDS011;50497;50.720;-2.084;2022-08-26T16:12:56;3.83;;;1.80;;
64282;SDS011;50497;50.720;-2.084;2022-08-26T16:15:21;6.50;;;2.10;;
64282;SDS011;50497;50.720;-2.084;2022-08-26T16:17:47;5.65;;;1.58;;